Peell, Washington
Current Conditions -  °F | °C
As of 9:35 PM on Tuesday 21 Oct 2014 (Local Time) from KCLS Reporting Station
Broken Clouds Broken Clouds  
Wind Chill: 57°   Ceiling: 6500
Heat Index: 57°   Visibility: 10mi
Dew Point: 52°   Wind: 10mph
Humidity: 82%   Direction: 180°S
Pressure: 29.8"   Gusts: NA
Location:  46.4795°N, 123.258°W
Report Text: KCLS 220435Z AUTO 18009KT 10SM FEW029 SCT038 BKN065 14/11 A2980 RMK AO2
Loading
Personal Weather Stations






























Interactive Weather Map
Tropical Storm Tracking
New forecast layout! Learn more

10-Day Weather Forecast

Advertisements
Track Severe Weather on mobile